Time;durP1;ratioP1;P1;durP2;ratioP2;P2;SDS_P1;SDS_P2;PMS_P1;PMS_P2;Temp;Humidity;BMP_temperature;BMP_pressure;BME280_temperature;BME280_humidity;BME280_pressure;Samples;Min_cycle;Max_cycle;Signal;HPM_P1;HPM_P2
2021/07/04 00:02:09;;;;;;;22.02;15.80;;;;;;;17.42;85.73;100930.73;1657631;86;21449;-84
2021/07/04 00:04:36;;;;;;;22.15;16.40;;;;;;;17.42;85.75;100932.06;1657704;85;21120;-85
2021/07/04 00:07:03;;;;;;;20.12;16.37;;;;;;;17.42;85.86;100936.51;1657829;86;21080;-85
2021/07/04 00:09:30;;;;;;;17.77;15.88;;;;;;;17.40;85.84;100931.60;1657641;86;21358;-84
2021/07/04 00:11:57;;;;;;;17.35;15.53;;;;;;;17.38;85.93;100930.72;1657582;85;21924;-85
2021/07/04 00:14:24;;;;;;;17.87;15.85;;;;;;;17.37;85.97;100928.96;1657450;86;21081;-84
2021/07/04 00:16:55;;;;;;;17.65;14.75;;;;;;;17.35;86.05;100932.07;1657535;85;21077;-85
2021/07/04 00:19:20;;;;;;;18.12;15.63;;;;;;;17.32;86.07;100932.94;1657096;86;21057;-85
2021/07/04 00:21:47;;;;;;;20.72;16.35;;;;;;;17.31;86.26;100933.84;1657746;86;21564;-85
2021/07/04 00:24:13;;;;;;;20.27;16.80;;;;;;;17.29;86.28;100927.64;1657635;85;22422;-85
2021/07/04 00:26:40;;;;;;;18.85;16.85;;;;;;;17.29;86.34;100936.95;1657611;86;21077;-85
2021/07/04 00:29:07;;;;;;;22.15;16.10;;;;;;;17.28;86.35;100936.03;1657691;86;21853;-84
2021/07/04 00:31:33;;;;;;;21.82;17.00;;;;;;;17.26;86.39;100940.92;1657521;85;21037;-85
2021/07/04 00:34:01;;;;;;;18.50;15.88;;;;;;;17.24;86.53;100943.58;1657787;86;21570;-84
2021/07/04 00:36:27;;;;;;;19.87;16.37;;;;;;;17.23;86.59;100947.14;1657642;86;21773;-84
2021/07/04 00:38:54;;;;;;;22.27;16.82;;;;;;;17.21;86.70;100944.92;1657337;85;21092;-84
2021/07/04 00:41:21;;;;;;;24.15;18.92;;;;;;;17.21;86.82;100946.26;1657571;86;21031;-84
2021/07/04 00:43:48;;;;;;;22.15;17.62;;;;;;;17.20;86.84;100949.79;1657642;86;21085;-84
2021/07/04 00:46:15;;;;;;;24.12;18.27;;;;;;;17.20;86.95;100948.91;1657703;86;21018;-84
2021/07/04 00:48:42;;;;;;;21.20;17.20;;;;;;;17.19;87.03;100940.47;1657713;85;21763;-84
2021/07/04 00:51:09;;;;;;;20.35;17.48;;;;;;;17.17;87.04;100929.82;1657560;86;21014;-84
2021/07/04 00:53:36;;;;;;;18.60;16.60;;;;;;;17.17;87.05;100939.59;1657464;86;21058;-84
2021/07/04 00:56:03;;;;;;;23.32;16.65;;;;;;;17.15;87.15;100934.25;1657549;86;21104;-84
2021/07/04 00:58:31;;;;;;;18.70;16.17;;;;;;;17.16;87.25;100927.19;1657576;86;21112;-85
2021/07/04 01:00:58;;;;;;;21.75;18.25;;;;;;;17.18;87.42;100930.28;1657479;86;21769;-84
2021/07/04 01:03:25;;;;;;;19.65;17.30;;;;;;;17.23;87.60;100929.84;1657485;86;21566;-85
2021/07/04 01:05:51;;;;;;;18.57;16.67;;;;;;;17.28;87.68;100935.16;1657713;86;21599;-84
2021/07/04 01:08:18;;;;;;;22.00;18.42;;;;;;;17.32;87.82;100935.59;1657521;85;21093;-84
2021/07/04 01:10:45;;;;;;;20.37;15.98;;;;;;;17.37;87.88;100928.96;1657438;85;21520;-83
2021/07/04 01:13:12;;;;;;;22.02;17.70;;;;;;;17.45;87.94;100937.82;1657500;86;21780;-84
2021/07/04 01:15:39;;;;;;;20.45;18.35;;;;;;;17.52;87.95;100932.94;1642326;86;21020;-84
2021/07/04 01:18:07;;;;;;;18.92;16.87;;;;;;;17.59;87.83;100932.51;1657511;86;21084;-85
2021/07/04 01:20:35;;;;;;;20.88;17.52;;;;;;;17.62;87.73;100929.82;1657533;86;21019;-84
2021/07/04 01:23:11;;;;;;;18.37;16.48;;;;;;;17.66;87.66;100932.92;1657580;85;21104;-84
2021/07/04 01:25:46;;;;;;;19.87;17.75;;;;;;;17.69;87.58;100927.14;1657425;85;22297;-85
2021/07/04 01:28:13;;;;;;;18.37;16.40;;;;;;;17.72;87.52;100930.69;1657155;85;21323;-83
2021/07/04 01:30:41;;;;;;;20.30;17.27;;;;;;;17.76;87.58;100936.03;1657632;86;21053;-86
2021/07/04 01:33:08;;;;;;;18.82;16.42;;;;;;;17.80;87.52;100931.13;1657371;86;21030;-85
2021/07/04 01:35:35;;;;;;;17.52;15.75;;;;;;;17.85;87.43;100931.17;1657633;86;21018;-85
2021/07/04 01:38:02;;;;;;;18.27;16.37;;;;;;;17.90;87.45;100922.70;1657509;86;21753;-84
2021/07/04 01:40:31;;;;;;;19.35;17.25;;;;;;;17.96;87.46;100933.79;1657052;85;21718;-84
2021/07/04 01:42:58;;;;;;;18.27;16.35;;;;;;;18.03;87.36;100935.55;1657378;86;21037;-84
2021/07/04 01:45:25;;;;;;;21.17;17.17;;;;;;;18.08;87.14;100939.55;1657415;85;21101;-84
2021/07/04 01:47:54;;;;;;;21.70;16.57;;;;;;;18.13;87.11;100941.73;1657468;86;21573;-84
2021/07/04 01:50:28;;;;;;;17.65;15.40;;;;;;;18.16;86.86;100945.27;1657783;86;21795;-84
2021/07/04 01:52:55;;;;;;;19.57;16.80;;;;;;;18.20;86.90;100943.48;1657502;86;21089;-84
2021/07/04 01:55:22;;;;;;;20.92;15.60;;;;;;;18.26;86.73;100948.79;1657706;85;21046;-85
2021/07/04 01:57:49;;;;;;;17.95;16.05;;;;;;;18.28;86.55;100947.00;1657559;86;21074;-85
2021/07/04 02:00:23;;;;;;;16.97;15.18;;;;;;;18.30;86.54;100945.25;1657737;86;21022;-85
2021/07/04 02:02:52;;;;;;;19.37;16.40;;;;;;;18.30;86.31;100941.25;1657511;86;21843;-85
2021/07/04 02:05:20;;;;;;;18.67;15.48;;;;;;;18.29;86.14;100942.13;1657510;86;21590;-85
2021/07/04 02:07:47;;;;;;;21.07;15.60;;;;;;;18.27;86.11;100942.58;1657473;86;21034;-85
2021/07/04 02:10:20;;;;;;;19.52;15.93;;;;;;;18.24;86.13;100938.16;1657538;86;21227;-85
2021/07/04 02:12:47;;;;;;;19.27;15.15;;;;;;;18.19;85.80;100933.74;1657633;86;21023;-85
2021/07/04 02:15:22;;;;;;;17.75;15.95;;;;;;;18.11;85.81;100928.41;1657501;86;21707;-85
2021/07/04 02:17:49;;;;;;;20.60;15.43;;;;;;;18.10;85.99;100939.98;1657401;85;21022;-86
2021/07/04 02:20:35;;;;;;;18.85;16.10;;;;;;;18.06;85.92;100939.55;1657735;86;21082;-85
2021/07/04 02:23:14;;;;;;;20.85;16.70;;;;;;;18.02;85.99;100941.78;1657466;86;21104;-85
2021/07/04 02:25:43;;;;;;;21.80;15.50;;;;;;;17.99;86.16;100943.99;1657666;85;21093;-85
2021/07/04 02:28:10;;;;;;;18.95;16.67;;;;;;;17.97;86.16;100952.89;1657629;85;21793;-85
2021/07/04 02:30:37;;;;;;;21.55;16.05;;;;;;;17.99;86.30;100947.11;1657373;86;21080;-85
2021/07/04 02:33:06;;;;;;;18.50;16.02;;;;;;;17.97;86.22;100947.11;1657434;86;21014;-84
2021/07/04 02:35:40;;;;;;;17.87;15.93;;;;;;;17.96;86.22;100954.67;1657668;86;21057;-85
2021/07/04 02:38:07;;;;;;;;;;;;;;;17.95;86.21;100946.68;1660006;85;21610;-85
2021/07/04 02:40:33;;;;;;;19.75;16.97;;;;;;;17.94;86.21;100945.77;1679133;84;21765;-85
2021/07/04 02:43:01;;;;;;;18.15;16.17;;;;;;;17.92;86.21;100944.89;1682239;85;21091;-85
2021/07/04 02:45:27;;;;;;;18.32;16.35;;;;;;;17.91;86.16;100941.80;1682338;85;21072;-85
2021/07/04 02:47:54;;;;;;;21.40;17.20;;;;;;;17.92;86.30;100942.23;1682241;83;21044;-84
2021/07/04 02:50:21;;;;;;;20.20;17.42;;;;;;;17.96;86.33;100933.79;1682212;85;21064;-84
2021/07/04 02:52:52;;;;;;;17.80;15.40;;;;;;;18.01;86.38;100936.00;1682173;83;21774;-85
2021/07/04 02:55:19;;;;;;;20.57;15.85;;;;;;;18.05;86.28;100935.97;1682161;84;21083;-85
2021/07/04 02:57:46;;;;;;;19.00;15.95;;;;;;;18.11;86.24;100936.86;1658927;85;21045;-85
2021/07/04 03:00:16;;;;;;;17.62;15.70;;;;;;;18.16;86.18;100935.95;1682271;84;21056;-85
2021/07/04 03:02:43;;;;;;;18.30;16.32;;;;;;;18.24;86.21;100936.83;1682342;85;21305;-84
2021/07/04 03:05:10;;;;;;;21.68;16.17;;;;;;;18.34;86.12;100943.00;1682306;83;22553;-85
2021/07/04 03:07:38;;;;;;;17.00;15.30;;;;;;;18.44;86.04;100938.52;1682155;85;21557;-84
2021/07/04 03:10:10;;;;;;;18.10;14.98;;;;;;;18.55;85.96;100938.48;1682260;83;21166;-85
2021/07/04 03:12:37;;;;;;;19.35;16.52;;;;;;;18.69;85.88;100940.60;1682474;84;21188;-84
2021/07/04 03:15:08;;;;;;;17.15;14.45;;;;;;;18.83;85.71;100945.91;1682341;85;21496;-85
2021/07/04 03:17:35;;;;;;;16.02;14.38;;;;;;;18.95;85.40;100946.27;1682431;85;21833;-84
2021/07/04 03:20:02;;;;;;;19.60;14.87;;;;;;;19.01;85.20;100952.47;1682129;84;21123;-84
2021/07/04 03:22:29;;;;;;;16.90;15.08;;;;;;;19.09;85.02;100956.42;1682115;85;21084;-84
2021/07/04 03:24:57;;;;;;;16.52;14.07;;;;;;;19.18;84.83;100959.45;1682333;85;21564;-85
2021/07/04 03:27:24;;;;;;;16.02;14.30;;;;;;;19.27;84.67;100965.17;1682424;85;21072;-85
2021/07/04 03:29:51;;;;;;;16.00;14.40;;;;;;;19.33;84.39;100966.45;1682375;85;21770;-85
2021/07/04 03:32:18;;;;;;;15.35;13.75;;;;;;;19.37;84.16;100965.53;1682302;83;21624;-85
2021/07/04 03:34:45;;;;;;;15.50;13.75;;;;;;;19.42;84.42;100968.60;1682468;85;20998;-85
2021/07/04 03:37:12;;;;;;;16.25;14.03;;;;;;;19.51;84.48;100963.64;1682414;83;21040;-85
2021/07/04 03:39:38;;;;;;;19.15;14.43;;;;;;;19.65;84.37;100974.19;1674763;85;21637;-85
2021/07/04 03:42:05;;;;;;;18.25;14.47;;;;;;;19.70;84.04;100968.38;1660572;85;21800;-85
2021/07/04 03:44:32;;;;;;;16.77;14.45;;;;;;;19.74;83.92;100972.81;1660258;86;21535;-85
2021/07/04 03:46:59;;;;;;;16.37;13.85;;;;;;;19.81;83.82;100970.98;1660470;85;21089;-85
2021/07/04 03:49:26;;;;;;;18.40;14.63;;;;;;;19.88;83.75;100972.70;1660427;85;21229;-85
2021/07/04 03:51:54;;;;;;;19.12;15.00;;;;;;;19.97;83.60;100968.60;1660233;86;36218;-85
2021/07/04 03:54:20;;;;;;;15.15;13.55;;;;;;;20.05;83.46;100971.19;1660199;86;21742;-84
2021/07/04 03:56:47;;;;;;;15.48;13.62;;;;;;;20.12;83.37;100967.55;1660321;86;21697;-84
2021/07/04 03:59:14;;;;;;;17.15;14.13;;;;;;;20.19;82.99;100971.91;1660786;86;21014;-84
2021/07/04 04:01:41;;;;;;;16.12;14.03;;;;;;;20.24;82.65;100966.98;1660255;86;21072;-84
2021/07/04 04:04:07;;;;;;;16.90;15.20;;;;;;;20.29;82.52;100969.13;1660268;85;21096;-85
2021/07/04 04:06:34;;;;;;;15.98;13.72;;;;;;;20.37;82.82;100969.48;1660217;85;21193;-85
2021/07/04 04:09:01;;;;;;;14.95;13.45;;;;;;;20.44;82.41;100973.41;1660164;86;21642;-84
2021/07/04 04:11:28;;;;;;;16.00;12.45;;;;;;;20.47;82.08;100978.73;1659945;86;21097;-84
2021/07/04 04:13:55;;;;;;;16.23;12.05;;;;;;;20.45;81.67;100983.22;1660206;85;21594;-85
2021/07/04 04:16:22;;;;;;;14.25;11.53;;;;;;;20.43;81.49;100985.02;1660237;85;21072;-84
2021/07/04 04:18:48;;;;;;;14.25;11.95;;;;;;;20.30;80.93;100979.81;1660182;85;21772;-85
2021/07/04 04:21:16;;;;;;;13.72;12.18;;;;;;;20.24;81.02;100977.67;1660256;85;21579;-84
2021/07/04 04:23:43;;;;;;;14.47;11.70;;;;;;;20.17;81.03;100985.73;1660171;86;21080;-84
2021/07/04 04:26:09;;;;;;;12.37;10.70;;;;;;;20.12;80.99;100990.70;1660463;86;21018;-84
2021/07/04 04:28:36;;;;;;;15.50;12.23;;;;;;;20.07;81.06;100992.09;1660563;86;21034;-84
2021/07/04 04:31:03;;;;;;;14.98;11.75;;;;;;;19.97;80.88;100987.30;1660547;86;22591;-85
2021/07/04 04:33:29;;;;;;;14.05;11.38;;;;;;;19.92;81.08;100987.79;1660279;86;21096;-84
2021/07/04 04:35:56;;;;;;;12.23;11.03;;;;;;;19.88;81.01;100990.06;1660365;86;21603;-84
2021/07/04 04:38:23;;;;;;;15.15;11.60;;;;;;;19.91;81.15;100993.14;1660446;86;21029;-85
2021/07/04 04:40:50;;;;;;;13.50;10.28;;;;;;;19.91;81.27;100992.69;1668579;84;21108;-85
2021/07/04 04:43:16;;;;;;;12.88;11.50;;;;;;;19.96;81.28;100985.52;1672345;85;21888;-84
2021/07/04 04:45:43;;;;;;;12.40;11.05;;;;;;;20.00;81.20;100994.39;1696122;83;21034;-85
2021/07/04 04:48:10;;;;;;;13.35;10.72;;;;;;;20.05;81.21;100987.22;1696267;84;21022;-84
2021/07/04 04:50:36;;;;;;;12.90;10.95;;;;;;;20.12;81.18;100990.27;1672279;85;21037;-85
2021/07/04 04:53:03;;;;;;;12.93;11.35;;;;;;;20.14;80.94;100986.22;1671029;85;21620;-85
2021/07/04 04:55:30;;;;;;;12.43;11.03;;;;;;;20.17;80.72;100990.20;1700326;83;21807;-84
2021/07/04 04:57:57;;;;;;;13.13;11.10;;;;;;;20.17;80.53;100981.73;1700229;83;21062;-85
2021/07/04 05:00:24;;;;;;;15.08;11.05;;;;;;;20.16;80.70;100986.66;1700413;83;20998;-84
2021/07/04 05:02:51;;;;;;;12.75;10.65;;;;;;;20.13;80.29;100987.14;1700510;83;21045;-85
2021/07/04 05:05:17;;;;;;;12.25;11.00;;;;;;;20.16;80.27;100989.79;1700679;84;21547;-84
2021/07/04 05:07:44;;;;;;;12.47;11.00;;;;;;;20.17;80.15;100991.08;1700526;84;21742;-85
2021/07/04 05:10:12;;;;;;;12.20;10.90;;;;;;;20.23;80.23;100998.61;1700547;83;20998;-86
2021/07/04 05:12:39;;;;;;;12.35;11.08;;;;;;;20.23;79.79;100999.95;1700631;84;21542;-87
2021/07/04 05:15:06;;;;;;;11.73;10.53;;;;;;;20.22;80.03;100995.52;1700593;83;21057;-83
2021/07/04 05:17:33;;;;;;;11.90;10.70;;;;;;;20.30;80.15;100993.64;1700555;83;21033;-85
2021/07/04 05:20:00;;;;;;;13.48;10.35;;;;;;;20.34;79.73;100998.04;1700525;84;22562;-84
2021/07/04 05:22:26;;;;;;;11.78;10.65;;;;;;;20.39;79.88;100999.75;1700817;84;21119;-86
2021/07/04 05:24:53;;;;;;;10.58;9.58;;;;;;;20.45;79.86;100994.79;1700633;84;21080;-84
2021/07/04 05:27:20;;;;;;;13.20;10.38;;;;;;;20.51;79.52;100992.03;1700552;83;21073;-85
2021/07/04 05:29:46;;;;;;;12.35;10.35;;;;;;;20.53;79.37;100996.94;1700116;84;21128;-86
2021/07/04 05:32:13;;;;;;;13.85;11.50;;;;;;;20.53;79.02;101000.95;1700600;84;21809;-86
2021/07/04 05:34:40;;;;;;;13.38;10.80;;;;;;;20.55;79.08;100995.55;1699949;84;21555;-84
2021/07/04 05:37:06;;;;;;;11.60;10.38;;;;;;;20.55;79.15;100999.14;1700760;84;21041;-86
2021/07/04 05:39:33;;;;;;;10.78;9.73;;;;;;;20.72;79.34;100996.71;1700501;83;21076;-86
2021/07/04 05:42:00;;;;;;;11.75;9.63;;;;;;;21.01;79.65;100996.33;1700575;84;21026;-88
2021/07/04 05:44:26;;;;;;;14.65;10.60;;;;;;;21.32;79.36;100995.43;1700642;84;21335;-86
2021/07/04 05:46:53;;;;;;;14.25;10.23;;;;;;;21.62;79.16;100996.31;1700579;84;21068;-86
2021/07/04 05:49:20;;;;;;;10.50;9.05;;;;;;;21.88;78.85;100992.72;1700759;84;21657;-86
2021/07/04 05:51:46;;;;;;;11.73;9.45;;;;;;;22.20;78.64;100991.23;1700154;83;21467;-85
2021/07/04 05:54:15;;;;;;;10.13;9.13;;;;;;;22.56;78.36;100988.79;1665983;85;21046;-89
2021/07/04 05:56:42;;;;;;;13.03;10.13;;;;;;;22.98;77.92;100985.20;1688049;83;21978;-88
2021/07/04 05:59:19;;;;;;;11.88;9.80;;;;;;;23.38;77.31;100983.81;1688314;84;21394;-91
2021/07/04 06:01:47;;;;;;;10.28;8.90;;;;;;;23.84;76.60;100981.82;1670691;84;21089;-90
2021/07/04 06:04:14;;;;;;;11.83;8.75;;;;;;;24.43;76.57;100978.38;1649832;87;21621;-88
2021/07/04 06:06:40;;;;;;;10.32;9.20;;;;;;;24.93;75.27;100966.60;1688527;84;21018;-89
2021/07/04 06:09:07;;;;;;;9.98;9.08;;;;;;;25.46;74.27;100981.99;1688226;85;22582;-89
2021/07/04 06:11:33;;;;;;;11.55;8.70;;;;;;;25.69;72.74;100979.86;1688270;83;21555;-87
2021/07/04 06:14:00;;;;;;;9.48;8.48;;;;;;;25.82;72.23;100980.32;1688474;84;21100;-89
2021/07/04 06:16:27;;;;;;;11.38;9.68;;;;;;;25.96;71.52;100985.28;1688400;84;21737;-85
2021/07/04 06:18:53;;;;;;;10.18;8.23;;;;;;;26.19;71.41;100983.97;1688436;85;21078;-91
2021/07/04 06:21:20;;;;;;;10.38;9.30;;;;;;;26.49;70.69;100982.43;1688402;84;21758;-87
2021/07/04 06:23:47;;;;;;;10.23;9.18;;;;;;;26.63;69.50;100981.92;1688188;84;21011;-88
2021/07/04 06:26:13;;;;;;;10.68;8.83;;;;;;;26.48;68.61;100979.78;1688479;84;21081;-88
2021/07/04 06:28:40;;;;;;;13.43;9.55;;;;;;;26.44;68.49;100984.41;1688486;85;21504;-93
2021/07/04 06:31:07;;;;;;;9.45;8.45;;;;;;;26.49;68.15;100982.91;1688486;85;21494;-87
2021/07/04 06:33:34;;;;;;;9.98;8.90;;;;;;;26.56;67.67;100981.74;1688339;85;21819;-88
2021/07/04 06:36:00;;;;;;;8.43;7.55;;;;;;;26.61;67.35;100975.70;1688552;84;20994;-89
2021/07/04 06:38:27;;;;;;;9.80;8.23;;;;;;;26.83;67.02;100969.49;1688670;84;20986;-95
2021/07/04 06:40:54;;;;;;;11.40;8.93;;;;;;;26.89;66.92;100967.89;1694116;83;21008;-91
2021/07/04 06:43:21;;;;;;;10.18;8.90;;;;;;;26.83;66.33;100973.55;1700503;83;21021;-90
2021/07/04 06:45:47;;;;;;;11.10;8.48;;;;;;;26.63;65.78;100975.17;1700856;84;21563;-90
2021/07/04 06:48:14;;;;;;;13.20;8.55;;;;;;;26.41;65.69;100979.59;1700691;84;21519;-88
2021/07/04 06:50:41;;;;;;;9.60;8.70;;;;;;;26.21;65.57;100983.05;1700853;84;21547;-87
2021/07/04 06:53:07;;;;;;;11.53;8.73;;;;;;;25.99;65.07;100979.28;1700780;84;21235;-89
2021/07/04 06:55:34;;;;;;;8.65;7.83;;;;;;;25.91;65.55;100981.34;1700790;84;21164;-91
2021/07/04 06:58:01;;;;;;;9.68;8.65;;;;;;;25.90;65.55;100980.05;1700810;84;21745;-89
2021/07/04 07:00:28;;;;;;;9.40;8.10;;;;;;;25.91;65.20;100979.13;1700861;84;21041;-89
2021/07/04 07:02:54;;;;;;;10.70;9.78;;;;;;;25.97;65.32;100978.94;1700838;84;21566;-91
2021/07/04 07:05:27;;;;;;;9.50;7.87;;;;;;;26.08;65.18;100981.26;1700900;84;21117;-94
2021/07/04 07:07:54;;;;;;;10.03;8.28;;;;;;;26.17;65.19;100984.50;1701520;84;21022;-96
2021/07/04 07:10:24;;;;;;;11.40;8.48;;;;;;;26.34;64.97;100977.61;1701265;84;21737;-94
2021/07/04 07:12:51;;;;;;;9.38;8.48;;;;;;;26.47;64.56;100979.39;1697387;83;21046;-93
2021/07/04 07:15:17;;;;;;;9.15;8.23;;;;;;;26.55;64.60;100971.39;1695381;83;21011;-92
2021/07/04 07:17:44;;;;;;;10.38;8.13;;;;;;;26.76;64.19;100976.94;1667494;84;21142;-93
2021/07/04 07:20:11;;;;;;;8.83;7.90;;;;;;;26.90;63.65;100969.19;1666456;84;21022;-91
2021/07/04 07:22:38;;;;;;;8.28;7.47;;;;;;;26.95;63.25;100971.24;1695406;84;21859;-92
2021/07/04 07:25:06;;;;;;;11.03;8.30;;;;;;;27.16;62.97;100971.32;1695338;84;21006;-95
2021/07/04 07:27:33;;;;;;;8.50;7.62;;;;;;;27.05;61.91;100973.58;1666588;84;21050;-93
2021/07/04 07:29:59;;;;;;;10.23;7.62;;;;;;;26.84;62.02;100982.04;1695648;84;21837;-91
2021/07/04 07:32:30;;;;;;;9.15;7.35;;;;;;;26.76;61.89;100983.21;1695414;83;21019;-89
2021/07/04 07:34:55;;;;;;;8.60;7.75;;;;;;;26.67;61.88;100978.64;1694884;84;21795;-91
2021/07/04 07:37:23;;;;;;;10.90;7.72;;;;;;;26.61;61.91;100975.70;1695363;84;21599;-94
2021/07/04 07:39:49;;;;;;;13.40;7.37;;;;;;;26.63;62.05;100979.70;1695469;84;21022;-94
2021/07/04 07:42:16;;;;;;;8.83;7.25;;;;;;;26.85;61.97;100976.58;1695153;84;21082;-90
2021/07/04 07:44:44;;;;;;;7.78;6.92;;;;;;;27.01;61.53;100967.86;1695118;84;21061;-90
2021/07/04 07:47:10;;;;;;;8.38;7.42;;;;;;;27.20;61.54;100967.99;1695250;83;21818;-94
2021/07/04 07:49:37;;;;;;;8.20;7.37;;;;;;;27.47;61.24;100966.02;1695255;83;21803;-90
2021/07/04 07:52:04;;;;;;;8.50;7.55;;;;;;;27.64;60.55;100968.87;1695804;84;21109;-96
2021/07/04 07:54:34;;;;;;;9.35;6.85;;;;;;;27.76;60.05;100967.49;1694890;84;21061;-95
2021/07/04 07:57:02;;;;;;;8.68;7.05;;;;;;;27.70;59.69;100966.38;1695320;84;21022;-93
2021/07/04 07:59:31;;;;;;;8.30;7.35;;;;;;;27.64;59.30;100965.30;1696027;84;21775;-90
2021/07/04 08:01:58;;;;;;;12.18;7.72;;;;;;;27.52;58.99;100962.66;1695288;84;21014;-91
2021/07/04 08:04:25;;;;;;;13.35;7.05;;;;;;;27.17;58.43;100966.31;1695390;84;21524;-88
